createdAt,value
2018-08-23T00:01:27.065Z,20.20
2018-08-23T00:03:58.441Z,20.63
2018-08-23T00:06:26.754Z,21.80
2018-08-23T00:08:57.432Z,23.42
2018-08-23T00:11:27.529Z,25.17
2018-08-23T00:13:55.893Z,26.62
2018-08-23T00:16:33.075Z,21.33
2018-08-23T00:19:02.399Z,20.80
2018-08-23T00:21:30.661Z,24.72
2018-08-23T00:24:07.138Z,25.32
2018-08-23T00:26:36.146Z,23.40
2018-08-23T00:29:06.104Z,26.48
2018-08-23T00:31:38.918Z,21.68
2018-08-23T00:34:07.554Z,27.85
2018-08-23T00:36:36.694Z,21.68
2018-08-23T00:39:06.603Z,24.65
2018-08-23T00:41:34.849Z,29.67
2018-08-23T00:44:03.113Z,29.67
2018-08-23T00:46:31.405Z,28.62
2018-08-23T00:48:59.674Z,25.50
2018-08-23T00:51:27.981Z,25.43
2018-08-23T00:54:01.495Z,29.12
2018-08-23T00:56:29.717Z,27.73
2018-08-23T00:59:00.602Z,30.80
2018-08-23T01:01:29.041Z,28.25
2018-08-23T01:03:57.341Z,28.87
2018-08-23T01:06:37.028Z,34.10
2018-08-23T01:09:07.280Z,34.38
2018-08-23T01:11:35.740Z,36.90
2018-08-23T01:14:04.040Z,36.30
2018-08-23T01:16:32.291Z,33.60
2018-08-23T01:19:05.834Z,33.02
2018-08-23T01:21:40.350Z,31.40
2018-08-23T01:24:08.613Z,33.30
2018-08-23T01:26:36.860Z,32.67
2018-08-23T01:29:15.080Z,33.40
2018-08-23T01:31:43.340Z,37.33
2018-08-23T01:34:11.681Z,34.73
2018-08-23T01:36:39.945Z,31.70
2018-08-23T01:39:10.681Z,33.90
2018-08-23T01:41:38.982Z,32.48
2018-08-23T01:44:07.301Z,33.92
2018-08-23T01:46:40.881Z,36.08
2018-08-23T01:49:09.146Z,34.85
2018-08-23T01:51:37.441Z,33.73
2018-08-23T01:54:05.720Z,37.08
2018-08-23T01:56:33.975Z,33.18
2018-08-23T01:59:02.256Z,35.00
2018-08-23T02:01:30.509Z,39.58
2018-08-23T02:03:58.753Z,45.40
2018-08-23T02:06:32.431Z,38.95
2018-08-23T02:09:00.682Z,37.90
2018-08-23T02:11:28.981Z,34.63
2018-08-23T02:13:57.266Z,32.05
2018-08-23T02:16:25.566Z,30.80
2018-08-23T02:18:53.817Z,36.30
2018-08-23T02:21:22.117Z,35.50
2018-08-23T02:23:52.420Z,36.85
2018-08-23T02:26:20.696Z,42.08
2018-08-23T02:28:50.604Z,37.25
2018-08-23T02:31:18.884Z,35.05
2018-08-23T02:33:47.208Z,34.33
2018-08-23T02:36:16.451Z,36.13
2018-08-23T02:38:45.961Z,35.90
2018-08-23T02:41:14.426Z,34.27
2018-08-23T02:43:43.000Z,29.70
2018-08-23T02:46:11.260Z,30.75
2018-08-23T02:48:39.511Z,34.50
2018-08-23T02:51:07.819Z,29.12
2018-08-23T02:53:37.979Z,26.30
2018-08-23T02:56:09.966Z,27.15
2018-08-23T02:58:57.448Z,29.00
2018-08-23T03:01:27.298Z,25.57
2018-08-23T03:04:06.836Z,29.72
2018-08-23T03:06:55.523Z,26.57
2018-08-23T03:09:39.900Z,30.68
2018-08-23T03:12:22.825Z,26.93
2018-08-23T03:14:51.069Z,27.35
2018-08-23T03:17:22.862Z,28.77
2018-08-23T03:20:11.962Z,29.92
2018-08-23T03:22:40.654Z,29.00
2018-08-23T03:25:10.361Z,28.38
2018-08-23T03:27:38.627Z,34.70
2018-08-23T03:30:08.979Z,39.40
2018-08-23T03:32:37.273Z,36.70
2018-08-23T03:35:05.661Z,44.03
2018-08-23T03:37:33.948Z,45.55
2018-08-23T03:40:02.204Z,47.07
2018-08-23T03:42:30.514Z,48.13
2018-08-23T03:44:59.488Z,45.60
2018-08-23T03:47:30.996Z,50.92
2018-08-23T03:50:00.756Z,54.83
2018-08-23T03:52:34.335Z,55.43
2018-08-23T03:55:02.560Z,51.30
2018-08-23T03:57:36.188Z,58.40
2018-08-23T04:00:04.427Z,53.65
2018-08-23T04:02:32.717Z,57.43
2018-08-23T04:05:19.496Z,58.55
2018-08-23T04:07:47.831Z,51.80
2018-08-23T04:10:16.060Z,47.48
2018-08-23T04:12:44.908Z,56.33
2018-08-23T04:15:25.429Z,54.13
2018-08-23T04:17:53.666Z,55.95
2018-08-23T04:20:21.904Z,50.45
2018-08-23T04:22:50.276Z,49.55
2018-08-23T04:25:18.493Z,55.12
2018-08-23T04:27:46.776Z,55.15
2018-08-23T04:30:15.562Z,54.48
2018-08-23T04:32:49.513Z,56.73
2018-08-23T04:35:23.261Z,50.52
2018-08-23T04:37:52.163Z,50.15
2018-08-23T04:40:20.400Z,51.55
2018-08-23T04:42:48.661Z,51.50
2018-08-23T04:45:22.177Z,50.08
2018-08-23T04:47:55.632Z,45.20
2018-08-23T04:50:25.188Z,52.85
2018-08-23T04:52:53.423Z,48.73
2018-08-23T04:55:21.721Z,54.30
2018-08-23T04:57:49.946Z,54.42
2018-08-23T05:00:18.215Z,50.17
2018-08-23T05:02:48.685Z,49.75
2018-08-23T05:05:16.960Z,49.73
2018-08-23T05:07:45.225Z,48.83
2018-08-23T05:10:13.699Z,52.90
2018-08-23T05:12:42.116Z,56.83
2018-08-23T05:15:10.390Z,53.52
2018-08-23T05:17:38.660Z,53.95
2018-08-23T05:20:07.094Z,44.88
2018-08-23T05:22:35.317Z,38.65
2018-08-23T05:25:12.620Z,38.58
2018-08-23T05:27:57.699Z,40.88
2018-08-23T05:30:26.997Z,36.17
2018-08-23T05:32:59.400Z,40.95
2018-08-23T05:35:28.213Z,46.43
2018-08-23T05:37:56.449Z,45.60
2018-08-23T05:40:24.708Z,48.30
2018-08-23T05:42:56.643Z,51.50
2018-08-23T05:45:35.886Z,46.13
2018-08-23T05:48:15.513Z,50.45
2018-08-23T05:50:43.964Z,51.95
2018-08-23T05:53:13.357Z,48.78
2018-08-23T05:55:41.614Z,53.42
2018-08-23T05:58:15.836Z,52.55
2018-08-23T06:00:44.212Z,55.03
2018-08-23T06:03:13.370Z,52.50
2018-08-23T06:05:41.654Z,55.90
2018-08-23T06:08:10.235Z,60.92
2018-08-23T06:10:38.512Z,57.50
2018-08-23T06:13:06.771Z,57.35
2018-08-23T06:15:39.210Z,53.78
2018-08-23T06:18:07.829Z,60.60
2018-08-23T06:20:36.076Z,62.53
2018-08-23T06:23:04.301Z,64.65
2018-08-23T06:25:32.558Z,63.52
2018-08-23T06:28:00.797Z,65.50
2018-08-23T06:30:29.044Z,60.85
2018-08-23T06:33:03.605Z,66.33
2018-08-23T06:35:36.052Z,74.95
2018-08-23T06:38:04.396Z,71.80
2018-08-23T06:40:32.672Z,72.00
2018-08-23T06:43:05.944Z,81.28
2018-08-23T06:45:34.258Z,78.20
2018-08-23T06:48:03.396Z,84.37
2018-08-23T06:50:31.685Z,95.25
2018-08-23T06:52:59.900Z,83.50
2018-08-23T06:55:35.543Z,90.53
2018-08-23T06:58:04.831Z,89.70
2018-08-23T07:00:33.533Z,82.92
2018-08-23T07:03:04.193Z,88.55
2018-08-23T07:05:32.574Z,87.57
2018-08-23T07:08:00.822Z,85.63
2018-08-23T07:10:29.156Z,86.17
2018-08-23T07:12:57.780Z,85.25
2018-08-23T07:15:26.158Z,92.27
2018-08-23T07:17:54.497Z,86.57
2018-08-23T07:20:22.797Z,83.27
2018-08-23T07:22:51.122Z,85.07
2018-08-23T07:25:19.975Z,86.53
2018-08-23T07:27:48.288Z,91.53
2018-08-23T07:30:20.308Z,85.27
2018-08-23T07:32:49.871Z,83.50
2018-08-23T07:35:19.402Z,89.95
2018-08-23T07:37:49.287Z,86.02
2018-08-23T07:40:18.496Z,88.45
2018-08-23T07:42:48.121Z,75.70
2018-08-23T07:45:16.987Z,74.77
2018-08-23T07:47:46.584Z,71.92
2018-08-23T07:50:14.985Z,74.53
2018-08-23T07:52:44.659Z,69.13
2018-08-23T07:55:13.205Z,74.67
2018-08-23T07:57:41.918Z,71.25
2018-08-23T08:00:38.224Z,70.70
2018-08-23T08:03:06.630Z,72.67
2018-08-23T08:05:38.273Z,73.53
2018-08-23T08:08:08.122Z,69.03
2018-08-23T08:10:42.876Z,70.97
2018-08-23T08:13:11.981Z,64.50
2018-08-23T08:15:40.256Z,69.15
2018-08-23T08:18:12.741Z,67.70
2018-08-23T08:20:41.435Z,68.40
2018-08-23T08:23:09.757Z,68.30
2018-08-23T08:25:38.008Z,68.17
2018-08-23T08:28:10.700Z,61.13
2018-08-23T08:30:44.302Z,61.20
2018-08-23T08:33:26.900Z,66.37
2018-08-23T08:35:59.834Z,57.03
2018-08-23T08:38:28.142Z,56.60
2018-08-23T08:40:56.424Z,57.40
2018-08-23T08:43:25.368Z,56.33
2018-08-23T08:45:55.653Z,63.10
2018-08-23T08:48:29.997Z,64.67
2018-08-23T08:51:14.901Z,58.85
2018-08-23T08:53:43.756Z,61.25
2018-08-23T08:56:12.012Z,63.02
2018-08-23T08:58:41.626Z,65.12
2018-08-23T09:01:09.872Z,62.48
2018-08-23T09:03:38.928Z,61.20
2018-08-23T09:06:08.588Z,61.03
2018-08-23T09:08:38.110Z,61.58
2018-08-23T09:11:06.633Z,63.94
2018-08-23T09:13:40.234Z,57.57
2018-08-23T09:16:10.797Z,62.70
2018-08-23T09:18:42.315Z,66.17
2018-08-23T09:21:11.386Z,67.90
2018-08-23T09:23:39.818Z,87.53
2018-08-23T09:26:08.143Z,89.40
2018-08-23T09:28:36.437Z,86.80
2018-08-23T09:31:04.710Z,87.43
2018-08-23T09:33:33.016Z,87.80
2018-08-23T09:36:01.312Z,81.93
2018-08-23T09:38:29.613Z,83.13
2018-08-23T09:40:57.882Z,79.85
2018-08-23T09:43:26.162Z,84.37
2018-08-23T09:45:54.425Z,73.90
2018-08-23T09:48:22.778Z,70.20
2018-08-23T09:50:51.205Z,77.37
2018-08-23T09:53:25.398Z,73.80
2018-08-23T09:55:55.199Z,76.77
2018-08-23T09:58:28.682Z,77.70
2018-08-23T10:01:02.270Z,68.10
2018-08-23T10:03:36.088Z,72.35
2018-08-23T10:06:09.585Z,69.40
2018-08-23T10:08:43.152Z,71.53
2018-08-23T10:11:20.999Z,75.23
2018-08-23T10:13:54.466Z,76.67
2018-08-23T10:16:27.919Z,67.12
2018-08-23T10:18:58.214Z,67.50
2018-08-23T10:21:31.855Z,62.03
2018-08-23T10:24:12.785Z,55.70
2018-08-23T10:26:41.149Z,65.67
2018-08-23T10:29:10.290Z,65.45
2018-08-23T10:31:38.576Z,69.53
2018-08-23T10:34:07.632Z,67.30
2018-08-23T10:36:36.085Z,63.10
2018-08-23T10:39:08.213Z,60.27
2018-08-23T10:41:36.585Z,53.27
2018-08-23T10:44:05.058Z,51.53
2018-08-23T10:46:38.749Z,58.40
2018-08-23T10:49:07.248Z,55.83
2018-08-23T10:51:35.793Z,59.07
2018-08-23T10:54:04.269Z,66.87
2018-08-23T10:56:32.913Z,66.92
2018-08-23T10:59:01.349Z,67.27
2018-08-23T11:01:30.103Z,68.93
2018-08-23T11:04:04.028Z,68.87
2018-08-23T11:06:32.451Z,63.63
2018-08-23T11:09:06.069Z,59.55
2018-08-23T11:11:36.130Z,63.13
2018-08-23T11:14:10.500Z,64.00
2018-08-23T11:16:44.811Z,57.23
2018-08-23T11:19:18.427Z,55.97
2018-08-23T11:21:46.893Z,51.43
2018-08-23T11:24:15.425Z,48.00
2018-08-23T11:26:43.969Z,48.70
2018-08-23T11:29:12.257Z,44.27
2018-08-23T11:31:40.565Z,46.67
2018-08-23T11:34:08.866Z,74.12
2018-08-23T11:36:37.268Z,54.42
2018-08-23T11:39:08.262Z,58.42
2018-08-23T11:41:36.985Z,54.25
2018-08-23T11:44:05.717Z,41.70
2018-08-23T11:46:34.390Z,44.95
2018-08-23T11:49:02.795Z,39.40
2018-08-23T11:51:31.260Z,41.02
2018-08-23T11:53:59.731Z,43.50
2018-08-23T11:56:28.296Z,42.20
2018-08-23T11:58:56.732Z,41.25
2018-08-23T12:01:25.018Z,30.72
2018-08-23T12:03:53.282Z,29.42
2018-08-23T12:06:21.597Z,38.20
2018-08-23T12:08:50.016Z,31.90
2018-08-23T12:11:18.560Z,34.25
2018-08-23T12:13:50.179Z,42.87
2018-08-23T12:16:18.696Z,58.60
2018-08-23T12:18:46.996Z,41.77
2018-08-23T12:21:15.507Z,49.87
2018-08-23T12:23:43.812Z,39.95
2018-08-23T12:26:12.769Z,25.88
2018-08-23T12:28:46.370Z,38.23
2018-08-23T12:31:14.961Z,35.73
2018-08-23T12:33:43.449Z,37.23
2018-08-23T12:36:12.702Z,37.57
2018-08-23T12:38:46.494Z,36.43
2018-08-23T12:41:20.372Z,41.77
2018-08-23T12:43:50.214Z,35.93
2018-08-23T12:46:18.626Z,34.20
2018-08-23T12:48:47.974Z,31.17
2018-08-23T12:51:16.385Z,35.17
2018-08-23T12:53:44.665Z,26.60
2018-08-23T12:56:13.469Z,27.00
2018-08-23T12:58:41.977Z,30.97
2018-08-23T13:01:10.520Z,21.67
2018-08-23T13:03:38.854Z,30.77
2018-08-23T13:06:07.615Z,24.60
2018-08-23T13:08:36.380Z,23.80
2018-08-23T13:11:04.986Z,22.07
2018-08-23T13:13:33.313Z,20.50
2018-08-23T13:16:01.655Z,25.57
2018-08-23T13:18:29.998Z,15.40
2018-08-23T13:20:58.534Z,19.23
2018-08-23T13:23:26.827Z,15.10
2018-08-23T13:25:55.770Z,17.87
2018-08-23T13:28:24.895Z,18.53
2018-08-23T13:30:53.526Z,17.77
2018-08-23T13:33:22.284Z,21.77
2018-08-23T13:35:50.586Z,17.40
2018-08-23T13:38:19.364Z,17.00
2018-08-23T13:40:48.521Z,17.40
2018-08-23T13:43:17.164Z,13.98
2018-08-23T13:45:45.803Z,14.43
2018-08-23T13:48:14.379Z,11.37
2018-08-23T13:50:42.913Z,20.85
2018-08-23T13:53:11.193Z,12.93
2018-08-23T13:55:39.705Z,24.47
2018-08-23T13:58:08.245Z,18.10
2018-08-23T14:00:40.640Z,17.67
2018-08-23T14:03:09.881Z,15.50
2018-08-23T14:05:39.972Z,19.65
2018-08-23T14:08:08.951Z,15.90
2018-08-23T14:10:37.515Z,16.10
2018-08-23T14:13:06.304Z,13.20
2018-08-23T14:15:40.235Z,13.02
2018-08-23T14:18:08.796Z,12.23
2018-08-23T14:20:37.348Z,16.30
2018-08-23T14:23:06.545Z,12.75
2018-08-23T14:25:35.217Z,18.37
2018-08-23T14:28:03.890Z,12.82
2018-08-23T14:30:32.376Z,17.83
2018-08-23T14:33:01.054Z,17.80
2018-08-23T14:35:29.281Z,22.07
2018-08-23T14:37:57.609Z,13.83
2018-08-23T14:40:25.856Z,22.43
2018-08-23T14:42:55.065Z,13.38
2018-08-23T14:45:28.581Z,20.25
2018-08-23T14:48:02.309Z,17.87
2018-08-23T14:50:31.622Z,17.70
2018-08-23T14:52:59.917Z,15.85
2018-08-23T14:55:33.786Z,13.90
2018-08-23T14:58:02.036Z,17.25
2018-08-23T15:00:30.509Z,13.53
2018-08-23T15:02:58.788Z,13.17
2018-08-23T15:05:27.024Z,15.10
2018-08-23T15:07:55.289Z,17.40
2018-08-23T15:10:23.535Z,13.34
2018-08-23T15:12:51.805Z,19.10
2018-08-23T15:15:24.196Z,16.80
2018-08-23T15:17:52.568Z,16.35
2018-08-23T15:20:20.821Z,14.17
2018-08-23T15:22:49.065Z,15.53
2018-08-23T15:25:17.281Z,21.17
2018-08-23T15:27:45.517Z,20.40
2018-08-23T15:30:13.782Z,14.40
2018-08-23T15:32:42.009Z,15.00
2018-08-23T15:35:10.273Z,14.23
2018-08-23T15:37:38.516Z,16.63
2018-08-23T15:40:06.764Z,15.85
2018-08-23T15:42:34.995Z,15.15
2018-08-23T15:45:03.351Z,15.47
2018-08-23T15:47:31.544Z,14.15
2018-08-23T15:49:59.856Z,14.98
2018-08-23T15:52:30.224Z,13.63
2018-08-23T15:54:58.480Z,13.40
2018-08-23T15:57:26.728Z,12.73
2018-08-23T15:59:54.968Z,13.43
2018-08-23T16:02:23.184Z,14.80
2018-08-23T16:04:51.432Z,13.72
2018-08-23T16:07:19.718Z,13.70
2018-08-23T16:09:47.966Z,14.05
2018-08-23T16:12:16.212Z,11.70
2018-08-23T16:14:44.513Z,11.37
2018-08-23T16:17:17.972Z,13.60
2018-08-23T16:19:51.536Z,11.83
2018-08-23T16:22:19.815Z,14.63
2018-08-23T16:24:48.137Z,13.83
2018-08-23T16:27:16.316Z,13.70
2018-08-23T16:29:50.442Z,11.55
2018-08-23T16:32:24.181Z,10.13
2018-08-23T16:34:52.536Z,11.43
2018-08-23T16:37:20.742Z,11.53
2018-08-23T16:39:48.978Z,12.98
2018-08-23T16:42:17.209Z,9.20
2018-08-23T16:44:45.457Z,11.00
2018-08-23T16:47:13.745Z,9.33
2018-08-23T16:49:42.072Z,12.20
2018-08-23T16:52:10.408Z,14.00
2018-08-23T16:54:38.724Z,13.00
2018-08-23T16:57:07.044Z,12.60
2018-08-23T16:59:35.341Z,7.53
2018-08-23T17:02:03.733Z,8.30
2018-08-23T17:04:37.396Z,7.60
2018-08-23T17:07:05.752Z,12.60
2018-08-23T17:09:34.051Z,12.55
2018-08-23T17:12:02.369Z,9.40
2018-08-23T17:14:30.651Z,7.67
2018-08-23T17:17:04.219Z,15.85
2018-08-23T17:19:32.541Z,9.60
2018-08-23T17:22:00.840Z,14.83
2018-08-23T17:24:29.193Z,21.20
2018-08-23T17:26:57.484Z,9.83
2018-08-23T17:29:25.717Z,10.96
2018-08-23T17:31:53.924Z,12.77
2018-08-23T17:34:22.275Z,10.72
2018-08-23T17:36:50.508Z,11.03
2018-08-23T17:39:18.754Z,10.20
2018-08-23T17:41:46.992Z,17.62
2018-08-23T17:44:15.276Z,11.78
2018-08-23T17:46:43.522Z,11.97
2018-08-23T17:49:11.894Z,8.18
2018-08-23T17:51:40.812Z,14.10
2018-08-23T17:54:09.069Z,8.47
2018-08-23T17:56:37.288Z,7.95
2018-08-23T17:59:05.633Z,15.85
2018-08-23T18:01:33.865Z,20.77
2018-08-23T18:04:02.364Z,11.03
2018-08-23T18:06:30.623Z,17.50
2018-08-23T18:08:58.953Z,8.80
2018-08-23T18:11:27.821Z,12.37
2018-08-23T18:13:56.085Z,13.87
2018-08-23T18:16:30.041Z,11.67
2018-08-23T18:18:58.309Z,15.95
2018-08-23T18:21:26.545Z,14.70
2018-08-23T18:23:54.832Z,17.75
2018-08-23T18:26:23.902Z,12.40
2018-08-23T18:28:52.313Z,12.35
2018-08-23T18:31:21.057Z,16.80
2018-08-23T18:33:49.451Z,10.95
2018-08-23T18:36:17.996Z,9.90
2018-08-23T18:38:46.781Z,13.87
2018-08-23T18:41:15.113Z,15.60
2018-08-23T18:43:43.422Z,9.08
2018-08-23T18:46:11.853Z,13.13
2018-08-23T18:48:40.100Z,16.40
2018-08-23T18:51:08.408Z,13.75
2018-08-23T18:53:36.727Z,24.73
2018-08-23T18:56:05.204Z,21.73
2018-08-23T18:58:33.599Z,20.23
2018-08-23T19:01:02.098Z,21.25
2018-08-23T19:03:30.618Z,24.40
2018-08-23T19:05:58.884Z,28.80
2018-08-23T19:08:27.807Z,21.82
2018-08-23T19:10:56.080Z,25.75
2018-08-23T19:13:24.457Z,26.93
2018-08-23T19:15:58.323Z,27.60
2018-08-23T19:18:26.565Z,26.67
2018-08-23T19:20:54.924Z,29.23
2018-08-23T19:23:23.299Z,29.60
2018-08-23T19:25:51.657Z,24.00
2018-08-23T19:28:20.489Z,23.90
2018-08-23T19:30:48.820Z,29.27
2018-08-23T19:33:17.413Z,31.35
2018-08-23T19:35:46.587Z,23.67
2018-08-23T19:38:15.928Z,22.00
2018-08-23T19:40:44.493Z,27.27
2018-08-23T19:43:14.140Z,21.90
2018-08-23T19:45:47.841Z,23.62
2018-08-23T19:48:16.768Z,28.02
2018-08-23T19:50:45.097Z,23.15
2018-08-23T19:53:14.680Z,25.47
2018-08-23T19:55:43.076Z,28.40
2018-08-23T19:58:12.289Z,21.03
2018-08-23T20:00:40.743Z,23.50
2018-08-23T20:03:09.017Z,23.32
2018-08-23T20:05:37.910Z,27.80
2018-08-23T20:08:06.359Z,24.25
2018-08-23T20:10:34.634Z,23.00
2018-08-23T20:13:02.964Z,25.50
2018-08-23T20:15:31.698Z,23.97
2018-08-23T20:18:00.153Z,29.25
2018-08-23T20:20:28.804Z,22.35
2018-08-23T20:22:57.236Z,23.50
2018-08-23T20:25:26.868Z,21.97
2018-08-23T20:27:55.453Z,24.10
2018-08-23T20:30:23.766Z,27.45
2018-08-23T20:32:52.149Z,25.40
2018-08-23T20:35:20.432Z,30.05
2018-08-23T20:37:48.745Z,25.50
2018-08-23T20:40:16.997Z,23.47
2018-08-23T20:42:46.273Z,24.40
2018-08-23T20:45:14.668Z,28.10
2018-08-23T20:47:43.171Z,24.10
2018-08-23T20:50:11.935Z,19.70
2018-08-23T20:52:40.433Z,25.45
2018-08-23T20:55:08.965Z,25.90
2018-08-23T20:57:37.409Z,24.75
2018-08-23T21:00:06.890Z,22.13
2018-08-23T21:02:35.157Z,31.10
2018-08-23T21:05:03.693Z,30.62
2018-08-23T21:07:32.010Z,27.53
2018-08-23T21:10:00.393Z,24.37
2018-08-23T21:12:28.581Z,24.80
2018-08-23T21:14:57.172Z,30.40
2018-08-23T21:17:25.481Z,26.60
2018-08-23T21:19:54.037Z,29.10
2018-08-23T21:22:22.492Z,29.20
2018-08-23T21:24:50.772Z,32.80
2018-08-23T21:27:19.318Z,33.48
2018-08-23T21:29:48.014Z,31.47
2018-08-23T21:32:16.293Z,36.13
2018-08-23T21:34:44.549Z,30.83
2018-08-23T21:37:12.830Z,28.20
2018-08-23T21:39:41.105Z,30.50
2018-08-23T21:42:09.423Z,23.07
2018-08-23T21:44:37.700Z,28.80
2018-08-23T21:47:07.105Z,23.38
2018-08-23T21:49:35.429Z,22.37
2018-08-23T21:52:03.706Z,25.32
2018-08-23T21:54:31.998Z,20.57
2018-08-23T21:57:00.269Z,20.70
2018-08-23T21:59:28.537Z,27.87
2018-08-23T22:02:01.995Z,23.10
2018-08-23T22:04:30.270Z,23.40
2018-08-23T22:06:58.537Z,25.02
2018-08-23T22:09:26.810Z,19.45
2018-08-23T22:11:55.062Z,20.12
2018-08-23T22:14:23.326Z,19.30
2018-08-23T22:16:51.579Z,21.48
2018-08-23T22:19:34.035Z,23.67
2018-08-23T22:22:02.277Z,19.37
2018-08-23T22:24:30.534Z,17.52
2018-08-23T22:26:58.859Z,25.88
2018-08-23T22:29:27.041Z,20.15
2018-08-23T22:31:55.276Z,19.17
2018-08-23T22:34:23.517Z,21.73
2018-08-23T22:36:51.804Z,29.67
2018-08-23T22:39:20.066Z,21.60
2018-08-23T22:41:48.320Z,21.05
2018-08-23T22:44:16.724Z,22.00
2018-08-23T22:46:45.709Z,21.70
2018-08-23T22:49:13.952Z,24.12
2018-08-23T22:51:42.221Z,19.57
2018-08-23T22:54:10.508Z,22.80
2018-08-23T22:56:38.781Z,21.52
2018-08-23T22:59:07.053Z,27.25
2018-08-23T23:01:35.288Z,23.07
2018-08-23T23:04:08.933Z,21.05
2018-08-23T23:06:37.226Z,19.15
2018-08-23T23:09:09.850Z,20.95
2018-08-23T23:11:38.284Z,21.90
2018-08-23T23:14:06.651Z,19.40
2018-08-23T23:16:34.934Z,20.40
2018-08-23T23:19:04.485Z,19.90
2018-08-23T23:21:32.815Z,22.37
2018-08-23T23:24:01.559Z,22.17
2018-08-23T23:26:29.951Z,19.20
2018-08-23T23:28:58.281Z,18.65
2018-08-23T23:31:26.535Z,22.07
2018-08-23T23:33:54.825Z,21.12
2018-08-23T23:36:23.093Z,18.40
2018-08-23T23:38:51.385Z,19.82
2018-08-23T23:41:19.641Z,25.30
2018-08-23T23:43:47.937Z,21.85
2018-08-23T23:46:16.205Z,19.30
2018-08-23T23:48:44.523Z,20.43
2018-08-23T23:51:12.803Z,19.67
2018-08-23T23:53:41.111Z,25.10
2018-08-23T23:56:09.363Z,21.03
2018-08-23T23:58:37.670Z,19.57
